sensor_id;sensor_type;location;lat;lon;timestamp;pressure;altitude;pressure_sealevel;temperature;humidity
3102;BME280;1561;42.666;23.392;2022-08-06T00:02:04;95035.97;;;20.92;100.00
3102;BME280;1561;42.666;23.392;2022-08-06T00:04:34;95006.34;;;20.59;100.00
3102;BME280;1561;42.666;23.392;2022-08-06T00:07:12;95049.69;;;20.86;100.00
3102;BME280;1561;42.666;23.392;2022-08-06T00:09:41;94986.75;;;20.29;100.00
3102;BME280;1561;42.666;23.392;2022-08-06T00:12:15;95058.31;;;20.65;100.00
3102;BME280;1561;42.666;23.392;2022-08-06T00:14:47;95051.84;;;20.55;100.00
3102;BME280;1561;42.666;23.392;2022-08-06T00:17:16;95052.66;;;20.55;100.00
3102;BME280;1561;42.666;23.392;2022-08-06T00:19:47;95047.81;;;20.73;100.00
3102;BME280;1561;42.666;23.392;2022-08-06T00:22:18;95053.47;;;20.83;100.00
3102;BME280;1561;42.666;23.392;2022-08-06T00:24:45;95032.28;;;20.52;100.00
3102;BME280;1561;42.666;23.392;2022-08-06T00:27:15;95038.97;;;20.68;100.00
3102;BME280;1561;42.666;23.392;2022-08-06T00:29:43;95032.72;;;20.62;100.00
3102;BME280;1561;42.666;23.392;2022-08-06T00:32:12;95057.56;;;20.71;100.00
3102;BME280;1561;42.666;23.392;2022-08-06T00:34:39;95049.59;;;20.73;100.00
3102;BME280;1561;42.666;23.392;2022-08-06T00:37:06;94988.53;;;20.49;100.00
3102;BME280;1561;42.666;23.392;2022-08-06T00:39:37;95052.69;;;20.83;100.00
3102;BME280;1561;42.666;23.392;2022-08-06T00:42:06;95056.47;;;20.87;100.00
3102;BME280;1561;42.666;23.392;2022-08-06T00:44:37;95056.09;;;20.90;100.00
3102;BME280;1561;42.666;23.392;2022-08-06T00:47:06;95063.81;;;20.77;100.00
3102;BME280;1561;42.666;23.392;2022-08-06T00:49:33;95058.56;;;20.70;100.00
3102;BME280;1561;42.666;23.392;2022-08-06T00:52:02;95052.88;;;20.81;100.00
3102;BME280;1561;42.666;23.392;2022-08-06T00:54:29;95056.41;;;20.74;100.00
3102;BME280;1561;42.666;23.392;2022-08-06T00:57:01;95054.06;;;20.58;100.00
3102;BME280;1561;42.666;23.392;2022-08-06T00:59:28;95065.06;;;20.60;100.00
3102;BME280;1561;42.666;23.392;2022-08-06T01:01:56;95059.03;;;20.53;100.00
3102;BME280;1561;42.666;23.392;2022-08-06T01:04:25;94959.88;;;20.09;100.00
3102;BME280;1561;42.666;23.392;2022-08-06T01:06:53;95053.94;;;20.66;100.00
3102;BME280;1561;42.666;23.392;2022-08-06T01:09:24;95044.97;;;20.68;100.00
3102;BME280;1561;42.666;23.392;2022-08-06T01:11:55;95050.84;;;20.56;100.00
3102;BME280;1561;42.666;23.392;2022-08-06T01:14:23;95044.78;;;20.42;100.00
3102;BME280;1561;42.666;23.392;2022-08-06T01:16:57;94983.44;;;19.93;100.00
3102;BME280;1561;42.666;23.392;2022-08-06T01:19:46;95045.97;;;20.19;100.00
3102;BME280;1561;42.666;23.392;2022-08-06T01:22:32;95022.59;;;19.98;100.00
3102;BME280;1561;42.666;23.392;2022-08-06T01:25:25;95040.38;;;20.01;100.00
3102;BME280;1561;42.666;23.392;2022-08-06T01:27:58;95050.09;;;20.13;100.00
3102;BME280;1561;42.666;23.392;2022-08-06T01:30:30;95050.00;;;20.07;100.00
3102;BME280;1561;42.666;23.392;2022-08-06T01:33:04;95041.88;;;20.10;100.00
3102;BME280;1561;42.666;23.392;2022-08-06T01:35:38;95047.31;;;20.15;100.00
3102;BME280;1561;42.666;23.392;2022-08-06T01:38:11;95035.16;;;20.15;100.00
3102;BME280;1561;42.666;23.392;2022-08-06T01:40:43;95035.75;;;20.17;100.00
3102;BME280;1561;42.666;23.392;2022-08-06T01:43:16;95027.41;;;20.01;100.00
3102;BME280;1561;42.666;23.392;2022-08-06T01:45:45;95033.94;;;20.11;100.00
3102;BME280;1561;42.666;23.392;2022-08-06T01:48:21;95004.50;;;19.83;100.00
3102;BME280;1561;42.666;23.392;2022-08-06T01:50:52;95039.31;;;19.95;100.00
3102;BME280;1561;42.666;23.392;2022-08-06T01:53:29;95044.63;;;19.87;100.00
3102;BME280;1561;42.666;23.392;2022-08-06T01:56:01;95036.06;;;19.87;100.00
3102;BME280;1561;42.666;23.392;2022-08-06T01:58:41;94977.81;;;19.47;100.00
3102;BME280;1561;42.666;23.392;2022-08-06T02:01:12;95035.78;;;20.03;100.00
3102;BME280;1561;42.666;23.392;2022-08-06T02:03:46;95016.63;;;19.97;100.00
3102;BME280;1561;42.666;23.392;2022-08-06T02:06:19;95030.41;;;20.19;100.00
3102;BME280;1561;42.666;23.392;2022-08-06T02:08:49;95030.88;;;20.29;100.00
3102;BME280;1561;42.666;23.392;2022-08-06T02:11:19;95023.50;;;20.26;100.00
3102;BME280;1561;42.666;23.392;2022-08-06T02:13:49;95027.38;;;20.15;100.00
3102;BME280;1561;42.666;23.392;2022-08-06T02:16:17;95018.72;;;20.29;100.00
3102;BME280;1561;42.666;23.392;2022-08-06T02:18:48;95016.00;;;20.16;100.00
3102;BME280;1561;42.666;23.392;2022-08-06T02:21:22;95000.94;;;20.05;100.00
3102;BME280;1561;42.666;23.392;2022-08-06T02:23:51;95011.59;;;19.96;100.00
3102;BME280;1561;42.666;23.392;2022-08-06T02:26:20;95006.41;;;19.96;100.00
3102;BME280;1561;42.666;23.392;2022-08-06T02:28:52;95011.03;;;20.00;100.00
3102;BME280;1561;42.666;23.392;2022-08-06T02:31:21;95014.75;;;19.91;100.00
3102;BME280;1561;42.666;23.392;2022-08-06T02:33:51;94974.09;;;19.56;100.00
3102;BME280;1561;42.666;23.392;2022-08-06T02:36:28;95005.63;;;19.74;100.00
3102;BME280;1561;42.666;23.392;2022-08-06T02:39:03;95014.06;;;19.83;100.00
3102;BME280;1561;42.666;23.392;2022-08-06T02:41:38;94966.72;;;19.53;100.00
3102;BME280;1561;42.666;23.392;2022-08-06T02:44:14;95022.53;;;19.70;100.00
3102;BME280;1561;42.666;23.392;2022-08-06T02:46:50;95020.91;;;19.69;100.00
3102;BME280;1561;42.666;23.392;2022-08-06T02:49:25;95028.66;;;19.69;100.00
3102;BME280;1561;42.666;23.392;2022-08-06T02:52:03;95030.78;;;19.80;100.00
3102;BME280;1561;42.666;23.392;2022-08-06T02:54:38;95018.13;;;19.71;100.00
3102;BME280;1561;42.666;23.392;2022-08-06T02:57:14;95009.56;;;19.70;100.00
3102;BME280;1561;42.666;23.392;2022-08-06T02:59:53;95017.97;;;19.37;100.00
3102;BME280;1561;42.666;23.392;2022-08-06T03:02:24;95040.81;;;19.33;100.00
3102;BME280;1561;42.666;23.392;2022-08-06T03:04:57;95042.50;;;19.41;100.00
3102;BME280;1561;42.666;23.392;2022-08-06T03:07:31;95036.13;;;19.58;100.00
3102;BME280;1561;42.666;23.392;2022-08-06T03:10:02;95033.91;;;19.55;100.00
3102;BME280;1561;42.666;23.392;2022-08-06T03:12:30;95040.38;;;19.65;100.00
3102;BME280;1561;42.666;23.392;2022-08-06T03:15:03;95042.78;;;19.31;100.00
3102;BME280;1561;42.666;23.392;2022-08-06T03:17:32;95035.09;;;19.38;100.00
3102;BME280;1561;42.666;23.392;2022-08-06T03:20:00;95040.53;;;19.43;100.00
3102;BME280;1561;42.666;23.392;2022-08-06T03:22:35;95041.41;;;19.50;100.00
3102;BME280;1561;42.666;23.392;2022-08-06T03:25:06;95042.47;;;19.55;100.00
3102;BME280;1561;42.666;23.392;2022-08-06T03:27:38;95048.66;;;19.54;100.00
3102;BME280;1561;42.666;23.392;2022-08-06T03:30:11;95047.06;;;19.24;100.00
3102;BME280;1561;42.666;23.392;2022-08-06T03:32:44;95048.31;;;19.28;100.00
3102;BME280;1561;42.666;23.392;2022-08-06T03:35:15;95034.53;;;19.42;100.00
3102;BME280;1561;42.666;23.392;2022-08-06T03:37:46;95038.31;;;19.40;100.00
3102;BME280;1561;42.666;23.392;2022-08-06T03:40:20;95049.19;;;19.50;100.00
3102;BME280;1561;42.666;23.392;2022-08-06T03:42:54;95040.13;;;19.60;100.00
3102;BME280;1561;42.666;23.392;2022-08-06T03:45:25;95038.44;;;19.67;100.00
3102;BME280;1561;42.666;23.392;2022-08-06T03:47:55;95039.72;;;20.13;100.00
3102;BME280;1561;42.666;23.392;2022-08-06T03:50:29;95038.47;;;20.30;100.00
3102;BME280;1561;42.666;23.392;2022-08-06T03:53:03;95028.84;;;20.45;100.00
3102;BME280;1561;42.666;23.392;2022-08-06T03:55:33;95030.56;;;20.93;100.00
3102;BME280;1561;42.666;23.392;2022-08-06T03:58:04;95034.59;;;21.36;100.00
3102;BME280;1561;42.666;23.392;2022-08-06T04:00:41;95040.38;;;21.72;100.00
3102;BME280;1561;42.666;23.392;2022-08-06T04:03:14;95035.84;;;22.00;100.00
3102;BME280;1561;42.666;23.392;2022-08-06T04:05:45;95044.72;;;21.65;100.00
3102;BME280;1561;42.666;23.392;2022-08-06T04:08:12;95040.00;;;21.41;100.00
3102;BME280;1561;42.666;23.392;2022-08-06T04:10:44;95051.69;;;22.18;100.00
3102;BME280;1561;42.666;23.392;2022-08-06T04:13:17;95051.75;;;22.51;100.00
3102;BME280;1561;42.666;23.392;2022-08-06T04:15:53;95054.75;;;22.54;100.00
3102;BME280;1561;42.666;23.392;2022-08-06T04:18:27;95053.69;;;22.36;100.00
3102;BME280;1561;42.666;23.392;2022-08-06T04:20:59;95061.34;;;22.89;100.00
3102;BME280;1561;42.666;23.392;2022-08-06T04:23:29;95047.84;;;23.32;100.00
3102;BME280;1561;42.666;23.392;2022-08-06T04:26:02;95049.75;;;22.46;100.00
3102;BME280;1561;42.666;23.392;2022-08-06T04:28:56;95055.31;;;23.02;100.00
3102;BME280;1561;42.666;23.392;2022-08-06T04:31:33;95057.91;;;22.37;100.00
3102;BME280;1561;42.666;23.392;2022-08-06T04:34:01;95058.28;;;23.32;100.00
3102;BME280;1561;42.666;23.392;2022-08-06T04:36:30;95056.28;;;23.84;100.00
3102;BME280;1561;42.666;23.392;2022-08-06T04:39:07;95058.09;;;23.13;100.00
3102;BME280;1561;42.666;23.392;2022-08-06T04:41:37;95051.50;;;22.91;100.00
3102;BME280;1561;42.666;23.392;2022-08-06T04:44:06;95069.78;;;23.68;100.00
3102;BME280;1561;42.666;23.392;2022-08-06T04:46:37;95050.78;;;24.67;93.19
3102;BME280;1561;42.666;23.392;2022-08-06T04:49:09;95043.44;;;24.20;93.75
3102;BME280;1561;42.666;23.392;2022-08-06T04:51:37;95040.69;;;25.13;87.15
3102;BME280;1561;42.666;23.392;2022-08-06T04:54:07;95068.69;;;26.03;77.45
3102;BME280;1561;42.666;23.392;2022-08-06T04:56:37;95069.75;;;24.81;84.90
3102;BME280;1561;42.666;23.392;2022-08-06T04:59:06;95066.69;;;25.26;81.50
3102;BME280;1561;42.666;23.392;2022-08-06T05:01:36;95078.63;;;25.94;79.04
3102;BME280;1561;42.666;23.392;2022-08-06T05:04:07;95063.47;;;27.42;68.36
3102;BME280;1561;42.666;23.392;2022-08-06T05:06:43;95065.25;;;27.53;68.04
3102;BME280;1561;42.666;23.392;2022-08-06T05:09:15;95029.72;;;27.74;65.47
3102;BME280;1561;42.666;23.392;2022-08-06T05:11:50;95075.84;;;28.37;61.18
3102;BME280;1561;42.666;23.392;2022-08-06T05:14:27;95080.56;;;26.99;67.39
3102;BME280;1561;42.666;23.392;2022-08-06T05:16:58;95069.28;;;26.16;75.16
3102;BME280;1561;42.666;23.392;2022-08-06T05:19:33;95074.94;;;27.64;68.50
3102;BME280;1561;42.666;23.392;2022-08-06T05:22:03;95070.75;;;28.75;62.05
3102;BME280;1561;42.666;23.392;2022-08-06T05:24:33;95073.09;;;29.60;57.57
3102;BME280;1561;42.666;23.392;2022-08-06T05:27:07;95067.75;;;29.00;59.02
3102;BME280;1561;42.666;23.392;2022-08-06T05:29:40;95072.19;;;28.99;60.19
3102;BME280;1561;42.666;23.392;2022-08-06T05:32:17;95061.66;;;29.54;57.99
3102;BME280;1561;42.666;23.392;2022-08-06T05:34:48;95036.25;;;28.72;58.08
3102;BME280;1561;42.666;23.392;2022-08-06T05:37:21;95078.25;;;28.39;63.39
3102;BME280;1561;42.666;23.392;2022-08-06T05:39:49;95056.44;;;29.97;55.76
3102;BME280;1561;42.666;23.392;2022-08-06T05:42:19;95078.06;;;29.78;58.15
3102;BME280;1561;42.666;23.392;2022-08-06T05:44:47;95074.91;;;29.59;58.08
3102;BME280;1561;42.666;23.392;2022-08-06T05:47:22;95062.75;;;29.96;56.11
3102;BME280;1561;42.666;23.392;2022-08-06T05:49:57;95074.78;;;30.35;54.41
3102;BME280;1561;42.666;23.392;2022-08-06T05:52:36;95030.41;;;31.73;48.92
3102;BME280;1561;42.666;23.392;2022-08-06T05:55:25;95056.47;;;30.77;51.65
3102;BME280;1561;42.666;23.392;2022-08-06T05:58:00;95067.03;;;31.13;49.29
3102;BME280;1561;42.666;23.392;2022-08-06T06:00:46;95074.28;;;30.65;52.05
3102;BME280;1561;42.666;23.392;2022-08-06T06:03:19;95074.94;;;30.24;54.00
3102;BME280;1561;42.666;23.392;2022-08-06T06:05:51;95067.03;;;31.55;49.53
3102;BME280;1561;42.666;23.392;2022-08-06T06:08:20;95059.03;;;31.81;49.02
3102;BME280;1561;42.666;23.392;2022-08-06T06:11:04;95066.50;;;30.27;52.85
3102;BME280;1561;42.666;23.392;2022-08-06T06:13:39;95049.75;;;30.96;51.69
3102;BME280;1561;42.666;23.392;2022-08-06T06:16:14;95045.47;;;32.49;46.81
3102;BME280;1561;42.666;23.392;2022-08-06T06:19:00;95058.84;;;31.15;49.50
3102;BME280;1561;42.666;23.392;2022-08-06T06:21:36;95065.16;;;31.45;49.80
3102;BME280;1561;42.666;23.392;2022-08-06T06:24:13;95066.53;;;31.16;49.88
3102;BME280;1561;42.666;23.392;2022-08-06T06:26:48;95056.84;;;32.45;45.74
3102;BME280;1561;42.666;23.392;2022-08-06T06:29:33;95049.78;;;31.01;49.99
3102;BME280;1561;42.666;23.392;2022-08-06T06:32:18;95057.25;;;32.07;47.53
3102;BME280;1561;42.666;23.392;2022-08-06T06:34:54;95052.63;;;32.79;44.12
3102;BME280;1561;42.666;23.392;2022-08-06T06:37:43;95043.63;;;33.35;42.61
3102;BME280;1561;42.666;23.392;2022-08-06T06:40:25;95052.00;;;33.67;42.50
3102;BME280;1561;42.666;23.392;2022-08-06T06:43:02;95038.31;;;34.96;39.65
3102;BME280;1561;42.666;23.392;2022-08-06T06:45:37;95042.25;;;34.16;40.42
3102;BME280;1561;42.666;23.392;2022-08-06T06:48:16;95038.97;;;34.77;38.75
3102;BME280;1561;42.666;23.392;2022-08-06T06:50:52;95035.47;;;34.48;39.63
3102;BME280;1561;42.666;23.392;2022-08-06T06:53:22;95036.66;;;32.19;43.97
3102;BME280;1561;42.666;23.392;2022-08-06T06:55:53;95039.09;;;33.25;42.51
3102;BME280;1561;42.666;23.392;2022-08-06T06:58:28;95039.53;;;31.09;47.29
3102;BME280;1561;42.666;23.392;2022-08-06T07:01:00;95043.63;;;33.25;42.96
3102;BME280;1561;42.666;23.392;2022-08-06T07:03:29;95034.41;;;34.01;41.10
3102;BME280;1561;42.666;23.392;2022-08-06T07:06:06;95026.53;;;33.81;40.90
3102;BME280;1561;42.666;23.392;2022-08-06T07:08:43;95028.19;;;34.97;38.84
3102;BME280;1561;42.666;23.392;2022-08-06T07:11:19;95032.44;;;35.79;37.01
3102;BME280;1561;42.666;23.392;2022-08-06T07:14:03;95025.69;;;34.77;38.56
3102;BME280;1561;42.666;23.392;2022-08-06T07:16:32;95021.84;;;34.93;38.22
3102;BME280;1561;42.666;23.392;2022-08-06T07:19:00;95024.84;;;32.56;44.16
3102;BME280;1561;42.666;23.392;2022-08-06T07:21:39;95024.84;;;32.66;44.39
3102;BME280;1561;42.666;23.392;2022-08-06T07:24:11;95021.16;;;33.96;41.62
3102;BME280;1561;42.666;23.392;2022-08-06T07:26:50;95008.91;;;34.05;40.72
3102;BME280;1561;42.666;23.392;2022-08-06T07:29:23;94998.41;;;36.18;36.45
3102;BME280;1561;42.666;23.392;2022-08-06T07:31:56;95010.53;;;33.22;41.51
3102;BME280;1561;42.666;23.392;2022-08-06T07:34:39;95011.81;;;32.25;45.67
3102;BME280;1561;42.666;23.392;2022-08-06T07:40:47;94998.31;;;35.86;38.09
3102;BME280;1561;42.666;23.392;2022-08-06T07:43:37;94963.53;;;36.20;35.58
3102;BME280;1561;42.666;23.392;2022-08-06T07:46:44;95000.28;;;36.36;35.32
3102;BME280;1561;42.666;23.392;2022-08-06T07:49:29;94996.56;;;35.53;37.04
3102;BME280;1561;42.666;23.392;2022-08-06T07:52:49;94997.25;;;36.61;35.47
3102;BME280;1561;42.666;23.392;2022-08-06T07:55:56;94955.69;;;36.10;35.50
3102;BME280;1561;42.666;23.392;2022-08-06T07:58:34;94994.59;;;34.78;37.31
3102;BME280;1561;42.666;23.392;2022-08-06T08:01:21;95006.84;;;37.40;33.42
3102;BME280;1561;42.666;23.392;2022-08-06T08:03:50;94987.94;;;36.27;34.29
3102;BME280;1561;42.666;23.392;2022-08-06T08:06:34;94990.75;;;37.45;33.09
3102;BME280;1561;42.666;23.392;2022-08-06T08:09:06;94996.28;;;37.48;32.97
3102;BME280;1561;42.666;23.392;2022-08-06T08:11:37;94986.59;;;35.64;35.12
3102;BME280;1561;42.666;23.392;2022-08-06T08:14:12;94994.22;;;35.52;35.06
3102;BME280;1561;42.666;23.392;2022-08-06T08:16:42;94999.81;;;35.22;36.10
3102;BME280;1561;42.666;23.392;2022-08-06T08:19:21;94995.59;;;35.68;35.41
3102;BME280;1561;42.666;23.392;2022-08-06T08:21:55;94988.38;;;38.46;31.40
3102;BME280;1561;42.666;23.392;2022-08-06T08:24:32;94996.97;;;37.94;31.04
3102;BME280;1561;42.666;23.392;2022-08-06T08:27:05;94998.38;;;36.92;32.52
3102;BME280;1561;42.666;23.392;2022-08-06T08:29:35;94963.44;;;37.66;32.00
3102;BME280;1561;42.666;23.392;2022-08-06T08:32:03;94989.06;;;38.52;31.00
3102;BME280;1561;42.666;23.392;2022-08-06T08:34:36;94989.72;;;39.71;29.66
3102;BME280;1561;42.666;23.392;2022-08-06T08:37:04;94987.84;;;38.22;30.13
3102;BME280;1561;42.666;23.392;2022-08-06T08:39:31;94983.75;;;38.25;30.47
3102;BME280;1561;42.666;23.392;2022-08-06T08:42:04;94987.78;;;39.54;28.57
3102;BME280;1561;42.666;23.392;2022-08-06T08:44:42;94983.00;;;39.90;28.51
3102;BME280;1561;42.666;23.392;2022-08-06T08:47:13;94982.19;;;39.34;28.63
3102;BME280;1561;42.666;23.392;2022-08-06T08:49:46;94976.78;;;40.21;28.31
3102;BME280;1561;42.666;23.392;2022-08-06T08:52:16;94976.84;;;39.03;29.04
3102;BME280;1561;42.666;23.392;2022-08-06T08:54:50;94979.41;;;39.17;28.53
3102;BME280;1561;42.666;23.392;2022-08-06T08:57:21;94985.34;;;37.77;29.99
3102;BME280;1561;42.666;23.392;2022-08-06T08:59:54;94981.63;;;39.23;28.32
3102;BME280;1561;42.666;23.392;2022-08-06T09:02:21;94981.75;;;37.14;29.85
3102;BME280;1561;42.666;23.392;2022-08-06T09:04:51;94977.81;;;39.46;26.63
3102;BME280;1561;42.666;23.392;2022-08-06T09:07:21;94964.19;;;40.55;25.62
3102;BME280;1561;42.666;23.392;2022-08-06T09:09:50;94974.31;;;38.76;26.58
3102;BME280;1561;42.666;23.392;2022-08-06T09:12:24;94969.41;;;39.61;26.27
3102;BME280;1561;42.666;23.392;2022-08-06T09:14:53;94975.34;;;39.50;26.34
3102;BME280;1561;42.666;23.392;2022-08-06T09:17:34;94937.44;;;39.26;26.65
3102;BME280;1561;42.666;23.392;2022-08-06T09:20:06;94969.69;;;38.68;27.49
3102;BME280;1561;42.666;23.392;2022-08-06T09:22:33;94970.28;;;38.08;28.89
3102;BME280;1561;42.666;23.392;2022-08-06T09:25:26;94968.75;;;38.73;28.32
3102;BME280;1561;42.666;23.392;2022-08-06T09:28:03;94956.44;;;39.16;27.86
3102;BME280;1561;42.666;23.392;2022-08-06T09:30:31;94945.97;;;38.97;27.82
3102;BME280;1561;42.666;23.392;2022-08-06T09:33:00;94955.50;;;36.57;29.44
3102;BME280;1561;42.666;23.392;2022-08-06T09:35:28;94953.53;;;37.26;28.80
3102;BME280;1561;42.666;23.392;2022-08-06T09:38:00;94956.31;;;37.48;28.72
3102;BME280;1561;42.666;23.392;2022-08-06T09:40:28;94954.19;;;36.41;30.28
3102;BME280;1561;42.666;23.392;2022-08-06T09:42:56;94946.72;;;37.34;28.45
3102;BME280;1561;42.666;23.392;2022-08-06T09:45:25;94950.19;;;38.90;27.45
3102;BME280;1561;42.666;23.392;2022-08-06T09:48:07;94925.22;;;37.30;28.27
3102;BME280;1561;42.666;23.392;2022-08-06T09:50:39;94935.16;;;37.65;28.77
3102;BME280;1561;42.666;23.392;2022-08-06T09:53:09;94950.41;;;38.14;28.31
3102;BME280;1561;42.666;23.392;2022-08-06T09:55:44;94952.06;;;37.61;28.73
3102;BME280;1561;42.666;23.392;2022-08-06T09:58:11;94958.47;;;37.46;29.46
3102;BME280;1561;42.666;23.392;2022-08-06T10:00:41;94952.69;;;37.93;28.69
3102;BME280;1561;42.666;23.392;2022-08-06T10:03:10;94946.59;;;37.12;28.44
3102;BME280;1561;42.666;23.392;2022-08-06T10:05:40;94936.63;;;37.31;28.13
3102;BME280;1561;42.666;23.392;2022-08-06T10:08:21;94940.03;;;38.48;26.33
3102;BME280;1561;42.666;23.392;2022-08-06T10:10:55;94944.91;;;36.38;29.46
3102;BME280;1561;42.666;23.392;2022-08-06T10:13:29;94930.63;;;37.39;28.54
3102;BME280;1561;42.666;23.392;2022-08-06T10:16:15;94921.25;;;39.31;26.39
3102;BME280;1561;42.666;23.392;2022-08-06T10:18:53;94922.59;;;38.50;26.78
3102;BME280;1561;42.666;23.392;2022-08-06T10:21:25;94920.78;;;36.80;28.60
3102;BME280;1561;42.666;23.392;2022-08-06T10:24:02;94931.47;;;35.51;30.64
3102;BME280;1561;42.666;23.392;2022-08-06T10:26:34;94919.53;;;36.27;29.81
3102;BME280;1561;42.666;23.392;2022-08-06T10:29:08;94923.53;;;37.97;28.03
3102;BME280;1561;42.666;23.392;2022-08-06T10:31:41;94918.06;;;38.81;26.81
3102;BME280;1561;42.666;23.392;2022-08-06T10:34:24;94917.38;;;37.07;28.35
3102;BME280;1561;42.666;23.392;2022-08-06T10:36:57;94922.44;;;35.05;31.16
3102;BME280;1561;42.666;23.392;2022-08-06T10:39:30;94916.56;;;37.06;29.01
3102;BME280;1561;42.666;23.392;2022-08-06T10:42:00;94913.56;;;38.02;27.20
3102;BME280;1561;42.666;23.392;2022-08-06T10:44:27;94904.81;;;36.67;29.57
3102;BME280;1561;42.666;23.392;2022-08-06T10:47:17;94901.66;;;36.78;29.44
3102;BME280;1561;42.666;23.392;2022-08-06T10:49:48;94912.00;;;35.55;30.90
3102;BME280;1561;42.666;23.392;2022-08-06T10:52:21;94910.25;;;36.25;30.06
3102;BME280;1561;42.666;23.392;2022-08-06T10:54:55;94908.47;;;36.52;29.13
3102;BME280;1561;42.666;23.392;2022-08-06T10:57:26;94902.31;;;37.16;27.96
3102;BME280;1561;42.666;23.392;2022-08-06T10:59:59;94897.28;;;36.37;29.40
3102;BME280;1561;42.666;23.392;2022-08-06T11:02:36;94897.34;;;37.36;28.97
3102;BME280;1561;42.666;23.392;2022-08-06T11:05:13;94886.84;;;37.80;26.76
3102;BME280;1561;42.666;23.392;2022-08-06T11:11:04;94894.88;;;37.40;27.70
3102;BME280;1561;42.666;23.392;2022-08-06T11:13:46;94893.41;;;36.61;28.42
3102;BME280;1561;42.666;23.392;2022-08-06T11:16:24;94887.88;;;37.17;27.72
3102;BME280;1561;42.666;23.392;2022-08-06T11:19:13;94890.31;;;38.03;27.67
3102;BME280;1561;42.666;23.392;2022-08-06T11:21:42;94889.03;;;37.65;27.54
3102;BME280;1561;42.666;23.392;2022-08-06T11:24:11;94891.47;;;37.75;27.26
3102;BME280;1561;42.666;23.392;2022-08-06T11:26:42;94874.97;;;35.82;29.68
3102;BME280;1561;42.666;23.392;2022-08-06T11:29:14;94887.00;;;35.56;30.15
3102;BME280;1561;42.666;23.392;2022-08-06T11:31:45;94882.06;;;36.56;29.15
3102;BME280;1561;42.666;23.392;2022-08-06T11:34:18;94869.91;;;35.62;30.24
3102;BME280;1561;42.666;23.392;2022-08-06T11:36:57;94884.97;;;35.30;31.07
3102;BME280;1561;42.666;23.392;2022-08-06T11:39:27;94884.19;;;33.81;32.81
3102;BME280;1561;42.666;23.392;2022-08-06T11:42:00;94889.09;;;32.56;33.64
3102;BME280;1561;42.666;23.392;2022-08-06T11:44:33;94897.84;;;32.36;35.21
3102;BME280;1561;42.666;23.392;2022-08-06T11:47:07;94894.28;;;33.16;34.15
3102;BME280;1561;42.666;23.392;2022-08-06T11:49:38;94891.56;;;33.89;32.68
3102;BME280;1561;42.666;23.392;2022-08-06T11:52:07;94850.03;;;33.70;32.46
3102;BME280;1561;42.666;23.392;2022-08-06T11:55:03;94884.81;;;34.02;33.04
3102;BME280;1561;42.666;23.392;2022-08-06T11:57:32;94887.59;;;34.20;32.72
3102;BME280;1561;42.666;23.392;2022-08-06T12:00:22;94888.16;;;34.17;33.17
3102;BME280;1561;42.666;23.392;2022-08-06T12:03:02;94893.16;;;33.85;33.20
3102;BME280;1561;42.666;23.392;2022-08-06T12:05:51;94891.34;;;33.76;33.27
3102;BME280;1561;42.666;23.392;2022-08-06T12:08:37;94883.78;;;33.54;33.21
3102;BME280;1561;42.666;23.392;2022-08-06T12:11:37;94878.75;;;33.96;31.95
3102;BME280;1561;42.666;23.392;2022-08-06T12:14:39;94880.41;;;33.87;32.73
3102;BME280;1561;42.666;23.392;2022-08-06T12:17:10;94867.56;;;33.66;32.60
3102;BME280;1561;42.666;23.392;2022-08-06T12:19:44;94876.47;;;33.36;33.71
3102;BME280;1561;42.666;23.392;2022-08-06T12:22:15;94872.03;;;33.70;33.54
3102;BME280;1561;42.666;23.392;2022-08-06T12:24:44;94850.16;;;33.50;33.55
3102;BME280;1561;42.666;23.392;2022-08-06T12:27:14;94869.75;;;32.85;34.26
3102;BME280;1561;42.666;23.392;2022-08-06T12:29:43;94858.09;;;32.91;33.75
3102;BME280;1561;42.666;23.392;2022-08-06T12:32:20;94857.63;;;32.54;33.10
3102;BME280;1561;42.666;23.392;2022-08-06T12:34:48;94855.25;;;32.63;33.63
3102;BME280;1561;42.666;23.392;2022-08-06T12:37:32;94855.75;;;32.60;33.95
3102;BME280;1561;42.666;23.392;2022-08-06T12:40:01;94876.69;;;32.41;33.86
3102;BME280;1561;42.666;23.392;2022-08-06T12:42:46;94852.84;;;32.66;33.48
3102;BME280;1561;42.666;23.392;2022-08-06T12:45:21;94858.19;;;32.21;33.79
3102;BME280;1561;42.666;23.392;2022-08-06T12:48:08;94856.28;;;32.67;33.75
3102;BME280;1561;42.666;23.392;2022-08-06T12:50:39;94822.47;;;32.24;33.45
3102;BME280;1561;42.666;23.392;2022-08-06T12:53:09;94867.91;;;32.86;33.38
3102;BME280;1561;42.666;23.392;2022-08-06T12:55:42;94857.38;;;32.51;33.45
3102;BME280;1561;42.666;23.392;2022-08-06T12:58:19;94842.25;;;32.86;33.36
3102;BME280;1561;42.666;23.392;2022-08-06T13:00:50;94837.69;;;33.02;32.98
3102;BME280;1561;42.666;23.392;2022-08-06T13:03:19;94827.47;;;33.29;32.96
3102;BME280;1561;42.666;23.392;2022-08-06T13:05:47;94829.13;;;33.20;32.96
3102;BME280;1561;42.666;23.392;2022-08-06T13:08:18;94841.88;;;33.61;31.94
3102;BME280;1561;42.666;23.392;2022-08-06T13:10:47;94839.53;;;33.01;32.65
3102;BME280;1561;42.666;23.392;2022-08-06T13:13:34;94841.97;;;32.73;32.45
3102;BME280;1561;42.666;23.392;2022-08-06T13:16:07;94848.75;;;33.09;32.06
3102;BME280;1561;42.666;23.392;2022-08-06T13:18:35;94846.75;;;32.81;32.13
3102;BME280;1561;42.666;23.392;2022-08-06T13:21:27;94838.09;;;33.19;31.74
3102;BME280;1561;42.666;23.392;2022-08-06T13:24:04;94834.72;;;33.03;31.67
3102;BME280;1561;42.666;23.392;2022-08-06T13:26:34;94835.81;;;33.02;32.36
3102;BME280;1561;42.666;23.392;2022-08-06T13:29:16;94826.41;;;33.30;31.39
3102;BME280;1561;42.666;23.392;2022-08-06T13:31:45;94832.66;;;33.49;31.83
3102;BME280;1561;42.666;23.392;2022-08-06T13:34:19;94828.91;;;33.06;31.57
3102;BME280;1561;42.666;23.392;2022-08-06T13:36:53;94837.03;;;31.86;33.08
3102;BME280;1561;42.666;23.392;2022-08-06T13:39:32;94830.41;;;31.99;33.95
3102;BME280;1561;42.666;23.392;2022-08-06T13:42:04;94826.22;;;32.28;33.44
3102;BME280;1561;42.666;23.392;2022-08-06T13:44:39;94833.06;;;32.04;33.41
3102;BME280;1561;42.666;23.392;2022-08-06T13:47:08;94827.25;;;32.12;33.11
3102;BME280;1561;42.666;23.392;2022-08-06T13:49:37;94833.81;;;32.54;32.24
3102;BME280;1561;42.666;23.392;2022-08-06T13:52:08;94831.44;;;32.58;32.16